»·PEaware :: N172SL KVNY-KPSP

N172SL :: KVNY-KPSP

FLIGHT INFORMATION

Flight Status: Arrived
Operator: Privately registered:
United States
More flights under this callsign
Pilot: Steve L. (17268)
Aircraft: CESSNA 172 SKYHAWK
(C172)
More flights by this aircraft type
Origin: KVNY Van Nuys
United States
Destination: KPSP Palm Springs Intl
United States
More flights between these airports :: More routes between these airports
Route: +POM
File this flight plan on PilotEdge
Remarks:
Altitude:
(Current/Filed)
5,500ft
Speed:
(Current/Filed)
0kts
Departed: 27-Dec-17 04:12 PM
Arrived: 27-Dec-17 05:15 PM
Distance/Time
Traveled:
102nm/1:02
Distance/Time
To Go:
Arrived

Flight Plot

Page will automatically refresh every two minutes.

Flight plan parsing failed; only flown route is shown


Map Options




Map Legend


Flown Route
Filed Route
Departure Airport
Arrival Airport
Navaid (VOR, NDB)
Fix

Horizontal Profiles

Position Reports

Time Latitude Longitude Heading Altitude Ground
Speed
27-Dec-17 16:12 34.208154 -118.491839 88 774ft 0kts
27-Dec-17 16:13 34.208154 -118.491839 89 774ft 0kts
27-Dec-17 16:14 34.208154 -118.491839 89 774ft 0kts
27-Dec-17 16:15 34.210381 -118.491626 348 779ft 0kts
27-Dec-17 16:16 34.216709 -118.492283 6 795ft 18kts
27-Dec-17 16:17 34.218656 -118.492185 64 798ft 0kts
27-Dec-17 16:18 34.208002 -118.490861 176 1040ft 79kts
27-Dec-17 16:19 34.184833 -118.491003 178 1884ft 89kts
27-Dec-17 16:20 34.161480 -118.493213 179 2783ft 94kts
27-Dec-17 16:21 34.131232 -118.491316 172 2905ft 114kts
27-Dec-17 16:22 34.099307 -118.481935 164 2846ft 117kts
27-Dec-17 16:23 34.066842 -118.475747 171 2865ft 116kts
27-Dec-17 16:24 34.059623 -118.453333 55 2644ft 114kts
27-Dec-17 16:25 34.075059 -118.423470 61 2858ft 97kts
27-Dec-17 16:26 34.084781 -118.396131 69 3416ft 79kts
27-Dec-17 16:27 34.091557 -118.372296 52 4273ft 76kts
27-Dec-17 16:28 34.105298 -118.350871 47 4754ft 83kts
27-Dec-17 16:29 34.117017 -118.326578 77 5259ft 96kts
27-Dec-17 16:30 34.123638 -118.293831 71 5421ft 109kts
27-Dec-17 16:31 34.128399 -118.256705 93 5373ft 116kts
27-Dec-17 16:32 34.122951 -118.218396 96 5373ft 115kts
27-Dec-17 16:33 34.118101 -118.180057 95 5373ft 116kts
27-Dec-17 16:34 34.113241 -118.141406 96 5365ft 117kts
27-Dec-17 16:35 34.109674 -118.113156 95 5364ft 117kts
27-Dec-17 16:36 34.106865 -118.078991 94 5510ft 123kts
27-Dec-17 16:37 34.104774 -118.043186 94 5513ft 132kts
27-Dec-17 16:38 34.100533 -117.993134 99 5517ft 123kts
27-Dec-17 16:39 34.095616 -117.954725 99 5524ft 115kts
27-Dec-17 16:40 34.091325 -117.922851 99 5527ft 116kts
27-Dec-17 16:41 34.085349 -117.878596 96 5532ft 116kts
27-Dec-17 16:42 34.082315 -117.846479 95 5536ft 116kts
27-Dec-17 16:43 34.078519 -117.807777 95 5533ft 117kts
27-Dec-17 16:44 34.072954 -117.760763 103 5525ft 124kts
27-Dec-17 16:45 34.065992 -117.727073 99 5519ft 124kts
27-Dec-17 16:46 34.063336 -117.685325 93 5513ft 125kts
27-Dec-17 16:47 34.058463 -117.643812 97 5507ft 125kts
27-Dec-17 16:48 34.053411 -117.602292 98 5502ft 125kts
27-Dec-17 16:49 34.048065 -117.560845 99 5503ft 125kts
27-Dec-17 16:50 34.042161 -117.519390 99 5506ft 125kts
27-Dec-17 16:51 34.036046 -117.477862 99 5508ft 125kts
27-Dec-17 16:52 34.029793 -117.436653 99 5510ft 125kts
27-Dec-17 16:53 34.023385 -117.395363 98 5511ft 125kts
27-Dec-17 16:54 34.017385 -117.354162 98 5513ft 124kts
27-Dec-17 16:55 34.010012 -117.315147 97 5510ft 124kts
27-Dec-17 16:56 34.003410 -117.274389 104 5513ft 124kts
27-Dec-17 16:57 33.995619 -117.233798 100 5514ft 124kts
27-Dec-17 16:58 33.988898 -117.192832 99 5516ft 124kts
27-Dec-17 16:59 33.982480 -117.151902 98 5517ft 124kts
27-Dec-17 17:00 33.976159 -117.111152 98 5519ft 124kts
27-Dec-17 17:01 33.969814 -117.070255 99 5519ft 124kts
27-Dec-17 17:02 33.963443 -117.029282 99 5519ft 124kts
27-Dec-17 17:03 33.957066 -116.988360 100 5520ft 124kts
27-Dec-17 17:04 33.950668 -116.947394 100 5522ft 124kts
27-Dec-17 17:05 33.944736 -116.906528 98 5524ft 124kts
27-Dec-17 17:06 33.939897 -116.865482 98 5525ft 123kts
27-Dec-17 17:07 33.934935 -116.824489 98 5290ft 123kts
27-Dec-17 17:08 33.929851 -116.784713 98 4691ft 117kts
27-Dec-17 17:09 33.924735 -116.746332 98 4091ft 115kts
27-Dec-17 17:10 33.919773 -116.710024 98 3491ft 106kts
27-Dec-17 17:11 33.915023 -116.675336 98 2891ft 104kts
27-Dec-17 17:12 33.910379 -116.640718 99 2238ft 107kts
27-Dec-17 17:13 33.905923 -116.606794 98 1816ft 107kts
27-Dec-17 17:14 33.901302 -116.572148 98 1431ft 91kts
27-Dec-17 17:15 33.896280 -116.542410 124 1430ft 93kts
27-Dec-17 17:16 33.875108 -116.522973 144 1434ft 99kts
27-Dec-17 17:17 33.853231 -116.504219 144 1543ft 93kts
27-Dec-17 17:18 33.832049 -116.486133 144 1540ft 87kts
27-Dec-17 17:19 33.813520 -116.473812 200 1437ft 79kts
27-Dec-17 17:20 33.815311 -116.491957 324 783ft 65kts
27-Dec-17 17:21 33.826445 -116.501874 329 411ft 9kts
27-Dec-17 17:22 33.826792 -116.500293 91 405ft 10kts

Navigation Log

Ident Type
Flight plan parsing failed, navigation log unavailable